Time;durP1;ratioP1;P1;durP2;ratioP2;P2;SDS_P1;SDS_P2;PMS_P1;PMS_P2;Temp;Humidity;BMP_temperature;BMP_pressure;BME280_temperature;BME280_humidity;BME280_pressure;Samples;Min_cycle;Max_cycle;Signal;HPM_P1;HPM_P2
2021/11/11 00:01:56;;;;;;;17.15;13.65;;;;;;;18.97;39.76;102369.94;5146057;28;20412;-67
2021/11/11 00:04:21;;;;;;;15.32;13.25;;;;;;;18.96;39.58;102364.75;5147091;28;20024;-67
2021/11/11 00:06:47;;;;;;;16.00;12.98;;;;;;;18.94;39.66;102364.00;5145257;28;20426;-67
2021/11/11 00:09:14;;;;;;;14.85;13.15;;;;;;;18.91;39.51;102366.81;5133985;28;20087;-67
2021/11/11 00:11:40;;;;;;;16.00;12.70;;;;;;;18.90;39.32;102360.69;5136416;28;20069;-67
2021/11/11 00:14:06;;;;;;;15.95;13.45;;;;;;;18.88;39.61;102353.78;5137372;28;20041;-66
2021/11/11 00:16:31;;;;;;;17.55;14.13;;;;;;;18.88;39.30;102361.72;5145278;28;20086;-67
2021/11/11 00:18:56;;;;;;;16.13;13.70;;;;;;;18.85;39.96;102360.97;5137192;27;20024;-67
2021/11/11 00:21:21;;;;;;;18.25;14.35;;;;;;;18.84;39.39;102353.97;5138080;27;20270;-67
2021/11/11 00:23:47;;;;;;;14.80;13.20;;;;;;;18.83;39.68;102343.47;5137619;27;20437;-67
2021/11/11 00:26:12;;;;;;;16.30;13.35;;;;;;;18.81;39.27;102343.56;5137714;27;20478;-67
2021/11/11 00:28:37;;;;;;;17.23;13.18;;;;;;;18.80;39.71;102343.66;5138096;27;20019;-67
2021/11/11 00:31:03;;;;;;;16.58;13.40;;;;;;;18.79;39.37;102337.53;5136598;27;20027;-66
2021/11/11 00:33:28;;;;;;;15.70;13.65;;;;;;;18.78;39.23;102335.00;5138386;27;20114;-67
2021/11/11 00:35:53;;;;;;;15.37;13.30;;;;;;;18.76;39.50;102335.09;5137457;27;20462;-67
2021/11/11 00:38:19;;;;;;;15.40;13.23;;;;;;;18.74;39.59;102336.97;5136327;27;20301;-66
2021/11/11 00:40:45;;;;;;;16.88;13.93;;;;;;;18.73;39.35;102335.25;5136747;27;20034;-67
2021/11/11 00:43:10;;;;;;;16.55;13.68;;;;;;;18.71;39.46;102328.38;5136441;27;20019;-67
2021/11/11 00:45:38;;;;;;;17.83;14.32;;;;;;;18.69;39.47;102320.53;5135888;27;20024;-67
2021/11/11 00:48:03;;;;;;;16.75;13.75;;;;;;;18.68;39.27;102330.25;5136267;27;20166;-68
2021/11/11 00:50:31;;;;;;;18.08;13.95;;;;;;;18.66;39.38;102334.78;5136397;27;20109;-66
2021/11/11 00:53:09;;;;;;;16.98;13.90;;;;;;;18.65;39.08;102334.88;5135749;27;20069;-67
2021/11/11 00:55:35;;;;;;;18.02;14.82;;;;;;;18.63;39.39;102332.34;5136211;27;20136;-67
2021/11/11 00:58:01;;;;;;;17.35;14.18;;;;;;;18.63;39.36;102332.34;5135325;27;20026;-67
2021/11/11 01:00:28;;;;;;;18.35;14.70;;;;;;;18.61;39.49;102328.94;5136387;27;20027;-66
2021/11/11 01:02:56;;;;;;;18.55;14.77;;;;;;;18.59;39.25;102327.31;5136044;27;20036;-66
2021/11/11 01:05:21;;;;;;;19.33;14.60;;;;;;;18.57;39.09;102324.78;5135583;27;20035;-67
2021/11/11 01:07:51;;;;;;;19.92;15.00;;;;;;;18.56;39.28;102324.88;5136233;27;20467;-68
2021/11/11 01:10:20;;;;;;;18.48;15.32;;;;;;;18.56;39.15;102325.69;5135723;27;20031;-66
2021/11/11 01:12:48;;;;;;;18.70;14.65;;;;;;;18.53;39.21;102323.25;5135326;27;20030;-67
2021/11/11 01:15:17;;;;;;;19.60;14.40;;;;;;;18.53;39.09;102317.97;5135611;27;20027;-66
2021/11/11 01:17:45;;;;;;;19.00;14.88;;;;;;;18.51;39.28;102319.84;5135974;27;20015;-67
2021/11/11 01:20:12;;;;;;;19.33;14.35;;;;;;;18.50;39.20;102312.91;5134912;27;20031;-67
2021/11/11 01:22:39;;;;;;;18.13;14.35;;;;;;;18.49;39.17;102314.66;5135969;27;20035;-67
2021/11/11 01:25:07;;;;;;;18.38;15.40;;;;;;;18.48;39.31;102315.63;5135306;27;20027;-67
2021/11/11 01:27:33;;;;;;;20.73;14.82;;;;;;;18.47;39.39;102319.19;5134874;27;20059;-67
2021/11/11 01:29:58;;;;;;;18.65;15.23;;;;;;;18.43;39.29;102309.75;5134200;27;20106;-67
2021/11/11 01:32:24;;;;;;;18.13;14.63;;;;;;;18.44;39.05;102329.09;5135800;27;20102;-67
2021/11/11 01:34:49;;;;;;;17.77;15.18;;;;;;;18.43;39.10;102322.09;5134919;27;20100;-67
2021/11/11 01:37:14;;;;;;;17.63;14.77;;;;;;;18.42;38.96;102323.03;5135250;27;20042;-66
2021/11/11 01:39:40;;;;;;;17.15;14.68;;;;;;;18.41;39.35;102330.13;5134826;27;20038;-66
2021/11/11 01:42:05;;;;;;;20.73;15.73;;;;;;;18.39;39.28;102339.91;5134310;27;20535;-67
2021/11/11 01:44:31;;;;;;;18.17;14.50;;;;;;;18.39;39.43;102339.91;5135333;27;20015;-66
2021/11/11 01:46:59;;;;;;;17.60;14.57;;;;;;;18.35;39.22;102333.13;5135428;27;20697;-66
2021/11/11 01:49:24;;;;;;;17.88;14.63;;;;;;;18.36;39.21;102329.53;5134683;27;20418;-67
2021/11/11 01:51:50;;;;;;;15.93;13.93;;;;;;;18.34;39.32;102334.06;5135273;27;20435;-67
2021/11/11 01:54:16;;;;;;;20.10;15.85;;;;;;;18.35;39.40;102327.00;5133995;27;20038;-66
2021/11/11 01:56:42;;;;;;;19.05;15.25;;;;;;;18.33;39.09;102319.16;5135079;27;20031;-66
2021/11/11 01:59:08;;;;;;;18.95;14.40;;;;;;;18.31;39.13;102316.63;5134579;27;20077;-67
2021/11/11 02:01:33;;;;;;;17.58;15.70;;;;;;;18.32;39.39;102320.09;5133883;27;20025;-66
2021/11/11 02:03:58;;;;;;;17.88;14.93;;;;;;;18.31;39.08;102321.91;5134671;27;20027;-68
2021/11/11 02:06:24;;;;;;;18.45;14.68;;;;;;;18.29;39.42;102315.00;5134865;27;20088;-67
2021/11/11 02:08:49;;;;;;;18.10;14.98;;;;;;;18.27;39.37;102312.44;5134099;27;20051;-67
2021/11/11 02:11:15;;;;;;;18.95;15.02;;;;;;;18.26;39.24;102312.53;5133156;27;20534;-67
2021/11/11 02:13:41;;;;;;;16.77;14.50;;;;;;;18.27;39.58;102311.59;5134429;27;20430;-67
2021/11/11 02:16:07;;;;;;;17.88;14.55;;;;;;;18.24;39.20;102314.41;5133739;27;20019;-66
2021/11/11 02:18:33;;;;;;;17.88;15.25;;;;;;;18.24;39.39;102307.34;5134608;27;20509;-66
2021/11/11 02:20:59;;;;;;;17.60;14.15;;;;;;;18.24;39.37;102309.97;5134110;27;20401;-67
2021/11/11 02:23:26;;;;;;;17.30;14.80;;;;;;;18.24;39.40;102304.69;5133872;27;20019;-67
2021/11/11 02:25:51;;;;;;;18.83;14.48;;;;;;;18.24;39.36;102307.34;5134372;27;20482;-67
2021/11/11 02:28:19;;;;;;;17.20;13.93;;;;;;;18.23;39.29;102302.16;5134034;27;20035;-67
2021/11/11 02:30:48;;;;;;;19.65;15.07;;;;;;;18.23;39.44;102302.16;5133654;27;20027;-67
2021/11/11 02:33:18;;;;;;;15.85;13.38;;;;;;;18.24;39.66;102298.59;5134251;27;20080;-67
2021/11/11 02:35:44;;;;;;;18.23;14.65;;;;;;;18.22;39.62;102289.91;5134229;27;20031;-66
2021/11/11 02:38:11;;;;;;;20.52;14.25;;;;;;;18.23;39.74;102296.88;5133148;27;20065;-67
2021/11/11 02:40:37;;;;;;;19.55;13.75;;;;;;;18.25;39.50;102300.28;5134186;27;20071;-67
2021/11/11 02:43:03;;;;;;;16.40;13.60;;;;;;;18.25;39.44;102293.22;5133366;27;20019;-66
2021/11/11 02:45:32;;;;;;;17.92;13.32;;;;;;;18.26;39.39;102281.75;5133443;27;20048;-67
2021/11/11 02:47:58;;;;;;;18.10;13.30;;;;;;;18.27;39.29;102278.13;5133841;27;20424;-67
2021/11/11 02:50:25;;;;;;;16.95;13.88;;;;;;;18.28;39.21;102276.38;5133349;27;20050;-67
2021/11/11 02:52:52;;;;;;;16.95;13.93;;;;;;;18.29;39.63;102283.31;5134006;27;20486;-67
2021/11/11 02:55:17;;;;;;;16.13;13.32;;;;;;;18.31;39.57;102284.94;5133507;27;20051;-67
2021/11/11 02:57:45;;;;;;;15.88;12.77;;;;;;;18.30;39.34;102288.50;5133121;27;20621;-66
2021/11/11 03:00:14;;;;;;;17.20;13.13;;;;;;;18.33;39.43;102286.66;5133546;27;20023;-66
2021/11/11 03:02:42;;;;;;;15.05;13.05;;;;;;;18.32;39.22;102285.78;5133886;27;20023;-67
2021/11/11 03:05:10;;;;;;;14.93;11.75;;;;;;;18.33;39.22;102295.41;5132728;27;20030;-67
2021/11/11 03:07:35;;;;;;;14.82;11.82;;;;;;;18.32;39.23;102293.69;5133713;27;20038;-67
2021/11/11 03:10:04;;;;;;;15.95;12.20;;;;;;;18.35;39.59;102304.06;5131938;27;20031;-66
2021/11/11 03:12:29;;;;;;;15.10;12.55;;;;;;;18.35;39.34;102290.03;5132532;27;20062;-67
2021/11/11 03:14:55;;;;;;;15.70;12.32;;;;;;;18.35;39.18;102301.44;5130098;27;20534;-66
2021/11/11 03:17:22;;;;;;;14.55;12.15;;;;;;;18.32;39.25;102291.06;5133331;27;20106;-67
2021/11/11 03:19:47;;;;;;;15.63;12.18;;;;;;;18.36;39.61;102297.88;5132642;27;20487;-67
2021/11/11 03:22:18;;;;;;;15.43;11.98;;;;;;;18.37;39.37;102296.06;5133033;27;20047;-67
2021/11/11 03:24:43;;;;;;;14.57;11.38;;;;;;;18.36;39.29;102297.88;5133353;27;20466;-68
2021/11/11 03:27:12;;;;;;;16.30;11.52;;;;;;;18.34;39.58;102286.56;5132370;27;20058;-68
2021/11/11 03:29:37;;;;;;;15.95;12.50;;;;;;;18.36;39.21;102294.34;5133334;27;20031;-68
2021/11/11 03:32:05;;;;;;;16.85;12.07;;;;;;;18.35;39.63;102290.03;5133077;27;20485;-68
2021/11/11 03:34:31;;;;;;;14.85;11.40;;;;;;;18.34;39.25;102291.84;5132826;27;20072;-67
2021/11/11 03:36:57;;;;;;;14.77;11.52;;;;;;;18.36;39.24;102295.22;5132917;27;20084;-67
2021/11/11 03:39:24;;;;;;;12.18;10.48;;;;;;;18.36;39.18;102297.88;5133131;27;20019;-67
2021/11/11 03:41:50;;;;;;;15.27;11.25;;;;;;;18.36;39.11;102292.59;5131789;27;20035;-67
2021/11/11 03:44:18;;;;;;;13.82;10.80;;;;;;;18.37;39.50;102282.88;5132806;27;20035;-67
2021/11/11 03:46:47;;;;;;;14.43;10.55;;;;;;;18.35;39.38;102288.25;5132337;27;20027;-68
2021/11/11 03:49:17;;;;;;;14.55;10.90;;;;;;;18.37;39.14;102290.78;5132589;28;20477;-68
2021/11/11 03:51:42;;;;;;;13.00;10.55;;;;;;;18.38;39.18;102289.88;5132969;28;20042;-67
2021/11/11 03:54:09;;;;;;;13.65;10.25;;;;;;;18.38;39.45;102292.50;5134041;27;20027;-67
2021/11/11 03:56:35;;;;;;;13.88;10.50;;;;;;;18.37;38.99;102289.00;5137433;27;20098;-68
2021/11/11 03:59:01;;;;;;;11.80;9.65;;;;;;;18.37;39.11;102283.72;5136884;27;20546;-67
2021/11/11 04:01:26;;;;;;;12.25;10.07;;;;;;;18.38;39.43;102301.25;5136529;27;20016;-67
2021/11/11 04:03:53;;;;;;;12.90;10.40;;;;;;;18.38;39.17;102295.13;5137135;27;20119;-67
2021/11/11 04:06:18;;;;;;;11.60;9.80;;;;;;;18.37;39.38;102294.28;5136735;27;20130;-67
2021/11/11 04:08:44;;;;;;;12.10;9.38;;;;;;;18.35;39.49;102282.97;5136135;27;20174;-67
2021/11/11 04:11:09;;;;;;;12.55;10.07;;;;;;;18.36;39.40;102289.94;5136435;27;20043;-67
2021/11/11 04:13:35;;;;;;;12.03;9.20;;;;;;;18.36;39.45;102287.31;5137050;27;20041;-66
2021/11/11 04:16:00;;;;;;;13.35;9.50;;;;;;;18.36;39.60;102295.22;5135810;27;20275;-67
2021/11/11 04:18:26;;;;;;;12.10;9.55;;;;;;;18.36;39.48;102294.34;5136764;27;20023;-67
2021/11/11 04:20:52;;;;;;;12.57;9.52;;;;;;;18.36;39.52;102302.28;5136766;27;20478;-67
2021/11/11 04:23:17;;;;;;;12.18;9.23;;;;;;;18.35;39.76;102290.88;5135917;27;20090;-67
2021/11/11 04:25:53;;;;;;;13.75;9.38;;;;;;;18.36;39.65;102291.72;5136680;27;20122;-68
2021/11/11 04:28:27;;;;;;;11.40;8.98;;;;;;;18.36;40.06;102281.16;5136431;27;20509;-69
2021/11/11 04:30:57;;;;;;;;;;;;;;;18.34;39.67;102281.28;5136439;27;20054;-67
2021/11/11 04:33:23;;;;;;;13.32;9.23;;;;;;;18.37;39.42;102283.72;5136418;27;19918;-67
2021/11/11 04:35:58;;;;;;;12.50;9.43;;;;;;;18.37;39.26;102280.22;5136237;27;20427;-68
2021/11/11 04:38:34;;;;;;;11.40;8.88;;;;;;;18.36;39.68;102284.69;5136654;27;20343;-67
2021/11/11 04:52:20;;;;;;;11.48;8.57;;;;;;;18.38;39.23;102290.69;5071755;28;20047;-67
2021/11/11 05:05:07;;;;;;;11.95;8.35;;;;;;;18.35;39.47;102290.88;5134615;27;20111;-67
2021/11/11 05:07:33;;;;;;;12.75;8.15;;;;;;;18.34;39.36;102285.69;5136207;27;20046;-68
2021/11/11 05:09:58;;;;;;;11.25;7.78;;;;;;;18.33;39.74;102289.28;5135536;27;20355;-68
2021/11/11 05:12:23;;;;;;;10.40;7.88;;;;;;;18.32;39.39;102288.44;5134776;27;20473;-67
2021/11/11 05:14:49;;;;;;;9.90;7.85;;;;;;;18.32;39.64;102283.16;5134868;27;20035;-67
2021/11/11 05:17:14;;;;;;;11.73;7.90;;;;;;;18.33;39.91;102295.41;5135145;27;20088;-67
2021/11/11 05:19:42;;;;;;;11.82;7.75;;;;;;;18.31;39.74;102290.22;5135014;27;20285;-67
2021/11/11 05:22:07;;;;;;;10.18;7.45;;;;;;;18.33;39.66;102297.22;5135424;27;20031;-67
2021/11/11 05:24:33;;;;;;;9.57;7.82;;;;;;;18.33;39.93;102303.31;5135611;27;20019;-66
2021/11/11 05:27:04;;;;;;;10.73;7.72;;;;;;;18.33;40.02;102303.31;5134311;27;20023;-67
2021/11/11 05:29:30;;;;;;;11.25;7.93;;;;;;;18.34;39.92;102310.31;5135404;27;20015;-67
2021/11/11 05:32:01;;;;;;;10.57;7.25;;;;;;;18.34;39.63;102312.97;5135012;27;20551;-67
2021/11/11 05:34:27;;;;;;;11.23;7.57;;;;;;;18.36;39.38;102312.84;5134708;27;20072;-67
2021/11/11 05:36:52;;;;;;;10.13;7.07;;;;;;;18.36;39.80;102308.44;5135229;27;20035;-67
2021/11/11 05:39:17;;;;;;;10.23;7.05;;;;;;;18.34;39.55;102310.31;5134127;27;20027;-67
2021/11/11 05:41:45;;;;;;;10.75;7.55;;;;;;;18.38;39.45;102310.97;5135194;27;20374;-67
2021/11/11 05:44:14;;;;;;;9.27;7.50;;;;;;;18.36;39.82;102311.06;5134613;27;20034;-67
2021/11/11 05:46:40;;;;;;;9.85;7.45;;;;;;;18.36;39.64;102318.13;5134419;27;20039;-67
2021/11/11 05:49:05;;;;;;;11.63;7.70;;;;;;;18.37;39.75;102317.19;5134543;27;20050;-67
2021/11/11 05:51:30;;;;;;;9.87;7.27;;;;;;;18.36;39.67;102318.13;5134838;27;20046;-68
2021/11/11 05:53:55;;;;;;;10.35;6.93;;;;;;;18.35;39.68;102317.28;5133990;27;20282;-67
2021/11/11 05:56:21;;;;;;;10.88;7.47;;;;;;;18.36;39.55;102319.00;5134906;27;20023;-67
2021/11/11 05:58:46;;;;;;;10.25;7.00;;;;;;;18.34;39.81;102326.16;5134846;27;20041;-67
2021/11/11 06:01:12;;;;;;;10.07;6.47;;;;;;;18.31;39.42;102329.81;5134122;27;20044;-66
2021/11/11 06:03:37;;;;;;;11.20;7.55;;;;;;;18.34;39.88;102333.19;5134836;27;20019;-67
2021/11/11 06:06:03;;;;;;;9.60;7.05;;;;;;;18.33;39.90;102332.38;5134716;27;20030;-67
2021/11/11 06:08:28;;;;;;;10.43;7.20;;;;;;;18.34;39.66;102334.06;5133977;27;20367;-67
2021/11/11 06:10:54;;;;;;;9.80;6.90;;;;;;;18.34;40.21;102331.44;5134708;27;20547;-66
2021/11/11 06:13:21;;;;;;;10.77;6.40;;;;;;;18.36;40.97;102340.09;5134345;27;20026;-67
2021/11/11 06:15:46;;;;;;;8.88;6.15;;;;;;;18.38;42.02;102340.84;5133565;27;20087;-67
2021/11/11 06:18:12;;;;;;;9.15;6.60;;;;;;;18.42;41.86;102341.50;5134124;27;20034;-66
2021/11/11 06:20:44;;;;;;;9.20;6.43;;;;;;;18.45;42.00;102342.22;5134571;27;20181;-66
2021/11/11 06:23:11;;;;;;;8.77;5.82;;;;;;;18.49;41.82;102350.78;5133515;27;20039;-67
2021/11/11 06:25:36;;;;;;;8.75;5.97;;;;;;;18.51;42.12;102343.63;5134269;27;20015;-66
2021/11/11 06:28:02;;;;;;;8.15;5.72;;;;;;;18.53;41.68;102352.28;5134140;27;20031;-66
2021/11/11 06:30:28;;;;;;;7.75;5.53;;;;;;;18.57;42.01;102348.53;5133721;27;20462;-67
2021/11/11 06:32:53;;;;;;;7.90;5.50;;;;;;;18.61;41.93;102349.19;5134429;27;20030;-67
2021/11/11 06:35:19;;;;;;;10.63;7.10;;;;;;;18.62;41.22;102350.91;5133682;27;20035;-68
2021/11/11 06:37:44;;;;;;;9.38;6.20;;;;;;;18.64;41.56;102354.28;5133399;27;20035;-68
2021/11/11 06:40:10;;;;;;;8.48;5.32;;;;;;;18.68;41.61;102364.59;5133741;27;20027;-68
2021/11/11 06:42:35;;;;;;;9.63;5.80;;;;;;;18.72;41.34;102370.53;5133172;27;20049;-68
2021/11/11 06:45:11;;;;;;;8.65;5.13;;;;;;;18.76;41.31;102368.56;5133545;27;20027;-66
2021/11/11 06:47:40;;;;;;;8.30;6.00;;;;;;;18.78;41.44;102370.16;5134075;27;20027;-66
2021/11/11 06:50:08;;;;;;;8.75;5.40;;;;;;;18.82;41.49;102374.34;5132756;27;20119;-67
2021/11/11 06:52:33;;;;;;;8.10;5.70;;;;;;;18.85;41.66;102370.69;5133586;27;20099;-66
2021/11/11 06:54:58;;;;;;;7.28;4.75;;;;;;;18.88;41.38;102381.06;5133206;27;20023;-68
2021/11/11 06:57:24;;;;;;;7.70;5.20;;;;;;;18.91;41.61;102388.78;5133205;27;20088;-68
2021/11/11 06:59:49;;;;;;;9.53;6.17;;;;;;;18.92;40.44;102381.75;5133796;27;20031;-68
2021/11/11 07:02:14;;;;;;;10.82;6.40;;;;;;;18.90;41.03;102383.59;5133321;27;20614;-67
2021/11/11 07:04:40;;;;;;;7.53;5.40;;;;;;;18.91;41.23;102380.03;5132883;27;20032;-67
2021/11/11 07:07:05;;;;;;;7.72;5.53;;;;;;;18.93;41.32;102386.06;5133442;27;20015;-67
2021/11/11 07:09:30;;;;;;;8.85;5.13;;;;;;;18.92;41.37;102377.28;5133520;27;20031;-67
2021/11/11 07:11:56;;;;;;;7.53;4.72;;;;;;;18.97;41.47;102383.16;5132791;27;20035;-67
2021/11/11 07:14:22;;;;;;;8.55;5.15;;;;;;;18.98;41.48;102389.31;5133652;27;20470;-67
2021/11/11 07:16:47;;;;;;;8.82;5.20;;;;;;;19.01;41.48;102389.13;5133612;27;20098;-67
2021/11/11 07:19:12;;;;;;;7.20;4.50;;;;;;;19.03;41.41;102384.56;5132398;27;20041;-68
2021/11/11 07:21:38;;;;;;;7.75;5.78;;;;;;;19.03;40.86;102382.78;5133525;27;20372;-67
2021/11/11 07:24:04;;;;;;;7.95;5.93;;;;;;;19.03;41.24;102382.78;5133043;27;20501;-70
2021/11/11 07:26:29;;;;;;;8.05;5.07;;;;;;;19.05;41.50;102384.47;5132884;27;20039;-68
2021/11/11 07:28:55;;;;;;;7.60;4.95;;;;;;;19.06;41.60;102386.16;5132668;27;20019;-67
2021/11/11 07:31:23;;;;;;;8.70;5.47;;;;;;;19.05;41.08;102387.97;5133304;27;20015;-66
2021/11/11 07:33:49;;;;;;;7.70;5.22;;;;;;;19.06;41.49;102381.75;5132647;27;20030;-73
2021/11/11 07:36:16;;;;;;;6.93;4.78;;;;;;;19.07;41.42;102379.94;5131831;27;20461;-71
2021/11/11 07:38:42;;;;;;;9.90;5.80;;;;;;;19.08;41.25;102379.00;5132944;27;20515;-73
2021/11/11 07:41:07;;;;;;;8.32;5.90;;;;;;;19.09;41.72;102389.50;5132463;27;20031;-70
2021/11/11 07:43:33;;;;;;;8.27;4.93;;;;;;;19.10;41.60;102385.03;5133229;27;20024;-68
2021/11/11 07:46:04;;;;;;;6.85;4.75;;;;;;;19.12;41.81;102388.44;5132230;27;20030;-68
2021/11/11 07:48:29;;;;;;;7.80;4.93;;;;;;;19.15;41.84;102390.91;5133278;28;20371;-68
2021/11/11 07:50:54;;;;;;;6.87;4.83;;;;;;;19.16;41.95;102393.44;5133168;28;20067;-68
2021/11/11 07:53:20;;;;;;;6.93;4.57;;;;;;;19.17;41.97;102399.59;5132023;28;20826;-68
2021/11/11 07:55:45;;;;;;;7.68;4.85;;;;;;;19.19;42.08;102403.00;5133216;28;20106;-66
2021/11/11 07:58:11;;;;;;;8.70;4.80;;;;;;;19.22;42.06;102408.09;5132572;28;20019;-68
2021/11/11 08:00:38;;;;;;;10.05;4.80;;;;;;;19.23;41.99;102407.13;5132407;28;20294;-68
2021/11/11 08:03:04;;;;;;;9.00;4.50;;;;;;;19.25;42.24;102401.75;5132715;28;20023;-70
2021/11/11 08:05:29;;;;;;;7.32;4.43;;;;;;;19.26;42.28;102414.03;5132937;28;20035;-70
2021/11/11 08:07:55;;;;;;;7.00;4.55;;;;;;;19.26;42.30;102399.00;5132059;28;20078;-69
2021/11/11 08:10:22;;;;;;;10.27;4.72;;;;;;;19.29;42.16;102406.75;5132424;28;20383;-68
2021/11/11 08:12:47;;;;;;;8.10;4.60;;;;;;;19.30;42.11;102404.97;5133137;28;20055;-69
2021/11/11 08:15:14;;;;;;;8.27;4.63;;;;;;;19.28;42.02;102397.13;5131874;28;20073;-71
2021/11/11 08:17:39;;;;;;;9.30;6.65;;;;;;;19.28;42.19;102397.13;5133047;28;20072;-69
2021/11/11 08:20:06;;;;;;;9.00;5.00;;;;;;;19.28;42.37;102396.28;5132613;28;20416;-70
2021/11/11 08:22:32;;;;;;;8.77;4.80;;;;;;;19.30;42.22;102404.97;5132048;28;20034;-70
2021/11/11 08:24:58;;;;;;;8.10;4.60;;;;;;;19.29;42.39;102404.09;5132602;28;20394;-71
2021/11/11 08:27:24;;;;;;;7.55;4.95;;;;;;;19.31;42.44;102406.66;5132889;28;20058;-70
2021/11/11 08:29:52;;;;;;;7.68;4.72;;;;;;;19.30;42.12;102403.16;5132167;28;20023;-69
2021/11/11 08:32:18;;;;;;;7.97;4.63;;;;;;;19.32;42.16;102403.09;5132444;28;20030;-72
2021/11/11 08:34:46;;;;;;;9.02;4.75;;;;;;;19.31;42.37;102410.16;5132968;28;20027;-72
2021/11/11 08:37:12;;;;;;;8.70;4.50;;;;;;;19.32;42.72;102406.56;5131616;28;20072;-71
2021/11/11 08:39:39;;;;;;;9.80;5.35;;;;;;;19.30;42.18;102403.16;5133107;27;20122;-70
2021/11/11 08:42:08;;;;;;;8.75;4.30;;;;;;;19.30;42.67;102400.53;5135254;27;20125;-68
2021/11/11 08:44:34;;;;;;;8.80;4.75;;;;;;;19.30;42.44;102405.81;5136408;27;20379;-70
2021/11/11 08:46:59;;;;;;;8.30;5.47;;;;;;;19.27;41.70;102399.88;5135988;27;20068;-71
2021/11/11 08:49:25;;;;;;;9.98;5.78;;;;;;;19.24;41.45;102400.91;5135697;27;20030;-68
2021/11/11 08:51:52;;;;;;;8.15;5.30;;;;;;;19.23;42.03;102403.63;5136203;27;20042;-67
2021/11/11 08:54:19;;;;;;;8.32;4.75;;;;;;;19.23;42.46;102404.47;5136166;27;20103;-69
2021/11/11 08:56:48;;;;;;;9.80;5.05;;;;;;;19.23;42.32;102403.63;5135487;27;20102;-69
2021/11/11 08:59:16;;;;;;;7.07;4.70;;;;;;;19.24;42.61;102400.91;5135641;27;20434;-69
2021/11/11 09:01:42;;;;;;;7.88;4.22;;;;;;;19.25;42.41;102399.09;5136042;27;20027;-69
2021/11/11 09:04:07;;;;;;;8.00;4.40;;;;;;;19.24;42.40;102400.06;5134875;27;20520;-68
2021/11/11 09:06:33;;;;;;;7.95;5.07;;;;;;;19.25;42.12;102394.69;5136373;27;20092;-67
2021/11/11 09:08:58;;;;;;;7.05;4.38;;;;;;;19.27;42.46;102386.66;5135840;27;20023;-67
2021/11/11 09:11:24;;;;;;;8.85;4.32;;;;;;;19.26;42.35;102382.31;5135768;27;20058;-69
2021/11/11 09:13:49;;;;;;;8.68;4.57;;;;;;;19.28;42.15;102386.56;5138570;27;20470;-71
2021/11/11 09:16:15;;;;;;;8.88;5.22;;;;;;;19.37;41.87;102391.25;5137207;27;20494;-71
2021/11/11 09:18:41;;;;;;;7.60;4.32;;;;;;;19.43;41.76;102382.09;5135068;27;20131;-71
2021/11/11 09:21:09;;;;;;;8.35;4.97;;;;;;;19.52;41.56;102391.28;5136042;27;20054;-73
2021/11/11 09:23:36;;;;;;;7.80;4.50;;;;;;;19.57;41.39;102391.81;5136951;27;20031;-73
2021/11/11 09:26:02;;;;;;;8.75;4.88;;;;;;;19.65;41.32;102399.28;5135461;27;20499;-70
2021/11/11 09:28:28;;;;;;;7.65;4.53;;;;;;;19.67;41.61;102402.66;5136561;27;20056;-67
2021/11/11 09:30:56;;;;;;;7.50;4.28;;;;;;;19.65;41.56;102394.00;5135539;27;20046;-66
2021/11/11 09:33:23;;;;;;;10.05;4.50;;;;;;;19.62;41.56;102395.03;5134649;27;20046;-68
2021/11/11 09:35:52;;;;;;;9.50;4.82;;;;;;;19.60;41.87;102388.13;5135939;27;20061;-68
2021/11/11 09:38:18;;;;;;;9.73;5.15;;;;;;;19.64;41.45;102392.28;5135589;27;20394;-69
2021/11/11 09:40:44;;;;;;;7.57;4.55;;;;;;;19.67;41.27;102397.38;5135764;27;20023;-70
2021/11/11 09:43:13;;;;;;;10.07;4.88;;;;;;;19.68;41.44;102399.94;5136015;27;20106;-71
2021/11/11 09:45:38;;;;;;;7.43;4.80;;;;;;;19.71;41.49;102401.50;5135366;27;20074;-69
2021/11/11 09:48:04;;;;;;;9.73;5.20;;;;;;;19.69;41.48;102404.28;5134690;27;20023;-66
2021/11/11 09:50:30;;;;;;;10.65;4.95;;;;;;;19.65;41.52;102404.56;5135110;27;20439;-66
2021/11/11 09:52:59;;;;;;;6.18;3.67;;;;;;;19.62;41.61;102399.47;5133710;27;20023;-67
2021/11/11 10:00:53;;;;;;;7.90;4.63;;;;;;;19.49;41.75;102394.09;5134378;27;20134;-67
2021/11/11 10:03:19;;;;;;;6.75;4.40;;;;;;;19.47;42.04;102406.56;5134776;27;20102;-67
2021/11/11 10:05:45;;;;;;;6.22;4.00;;;;;;;19.43;42.08;102397.97;5135193;27;20105;-68
2021/11/11 10:08:30;;;;;;;6.20;3.72;;;;;;;19.42;42.30;102401.53;5133852;27;20522;-66
2021/11/11 10:10:55;;;;;;;7.88;4.32;;;;;;;19.40;42.24;102393.72;5134529;27;20050;-68
2021/11/11 10:13:21;;;;;;;9.18;4.80;;;;;;;19.38;41.69;102397.41;5134849;27;20036;-69
2021/11/11 10:16:05;;;;;;;7.05;4.70;;;;;;;19.36;41.93;102401.97;5134050;27;20445;-68
2021/11/11 10:18:41;;;;;;;7.87;4.40;;;;;;;19.35;41.96;102405.53;5134992;27;20015;-69
2021/11/11 10:21:45;;;;;;;8.23;4.88;;;;;;;19.34;42.24;102417.03;5133758;27;20024;-65
2021/11/11 10:24:30;;;;;;;6.72;4.25;;;;;;;19.33;42.49;102416.19;5133379;27;20092;-69
2021/11/11 10:27:25;;;;;;;9.05;4.97;;;;;;;19.31;42.05;102417.22;5134605;27;20028;-68
2021/11/11 10:29:50;;;;;;;;;;;;;;;19.29;42.51;102416.47;5134194;27;20076;-71
2021/11/11 10:32:20;;;;;;;8.63;4.10;;;;;;;19.30;42.54;102418.19;5134731;27;20660;-67
2021/11/11 10:35:17;;;;;;;8.35;3.95;;;;;;;19.30;42.96;102420.84;5133748;27;20368;-67
2021/11/11 10:37:49;;;;;;;5.68;3.85;;;;;;;19.30;43.06;102410.25;5078589;27;20044;-69
2021/11/11 10:40:19;;;;;;;6.03;4.22;;;;;;;19.31;42.77;102412.81;5134345;27;20023;-66
2021/11/11 10:42:47;;;;;;;5.53;3.83;;;;;;;19.32;43.04;102413.66;5133689;27;20023;-64
2021/11/11 10:45:27;;;;;;;11.23;3.80;;;;;;;19.35;43.01;102418.75;5133795;27;20034;-65
2021/11/11 10:47:55;;;;;;;7.72;3.67;;;;;;;19.35;42.80;102413.47;5133823;27;20035;-64
2021/11/11 10:50:43;;;;;;;7.70;4.03;;;;;;;19.37;42.99;102414.22;5133838;27;20027;-69
2021/11/11 10:53:11;;;;;;;7.45;4.60;;;;;;;19.36;43.28;102410.72;5133526;27;20054;-69
2021/11/11 10:55:39;;;;;;;7.35;3.72;;;;;;;19.36;43.16;102404.59;5134848;27;20072;-68
2021/11/11 10:58:13;;;;;;;7.55;3.45;;;;;;;19.36;43.37;102404.59;5134250;27;20109;-66
2021/11/11 11:00:59;;;;;;;6.50;3.97;;;;;;;19.34;43.08;102406.47;5134927;27;20043;-68
2021/11/11 11:03:32;;;;;;;7.13;3.42;;;;;;;19.35;43.31;102410.81;5134330;27;20098;-68
2021/11/11 11:06:00;;;;;;;7.57;3.63;;;;;;;19.33;43.32;102404.78;5135268;27;20034;-66
2021/11/11 11:08:27;;;;;;;8.20;3.30;;;;;;;19.34;43.69;102401.19;5135250;27;20382;-67
2021/11/11 11:10:58;;;;;;;8.45;3.38;;;;;;;19.35;43.65;102398.44;5134209;27;20043;-67
2021/11/11 11:13:27;;;;;;;7.85;3.50;;;;;;;19.36;43.73;102404.59;5139887;27;20077;-67
2021/11/11 11:16:01;;;;;;;7.57;3.47;;;;;;;19.37;43.76;102407.13;5140179;27;20381;-65
2021/11/11 11:18:29;;;;;;;;;;;;;;;19.36;43.68;102399.31;5141653;27;20027;-65
2021/11/11 11:20:58;;;;;;;6.70;3.40;;;;;;;19.35;43.92;102395.81;5140456;27;19926;-64
2021/11/11 11:23:32;;;;;;;7.22;3.50;;;;;;;19.35;43.85;102394.97;5137618;27;20019;-65
2021/11/11 11:26:19;;;;;;;8.13;3.57;;;;;;;19.35;44.03;102393.16;5134642;27;20031;-65
2021/11/11 11:29:11;;;;;;;8.23;3.60;;;;;;;19.34;43.99;102383.53;5134579;27;20473;-67
2021/11/11 11:31:54;;;;;;;6.45;3.67;;;;;;;19.34;44.00;102377.38;5132814;27;20489;-66
2021/11/11 11:34:26;;;;;;;8.05;3.85;;;;;;;19.32;43.80;102401.28;5132912;27;20118;-65
2021/11/11 11:36:53;;;;;;;7.28;3.63;;;;;;;19.32;43.85;102384.56;5133918;27;20031;-67
2021/11/11 11:39:44;;;;;;;9.80;4.00;;;;;;;19.32;44.09;102392.50;5133050;27;20102;-69
2021/11/11 11:42:18;;;;;;;9.07;4.63;;;;;;;19.33;43.28;102392.41;5133379;27;20027;-66
2021/11/11 11:44:51;;;;;;;;;;;;;;;19.32;43.59;102390.69;5133829;27;20028;-67
2021/11/11 11:47:31;;;;;;;6.13;3.47;;;;;;;19.36;43.86;102388.75;5132511;27;19915;-65
2021/11/11 11:50:05;;;;;;;6.63;3.70;;;;;;;19.36;44.27;102388.75;5133807;27;20150;-67